Time;durP1;ratioP1;P1;durP2;ratioP2;P2;SDS_P1;SDS_P2;PMS_P1;PMS_P2;Temp;Humidity;BMP_temperature;BMP_pressure;BME280_temperature;BME280_humidity;BME280_pressure;Samples;Min_cycle;Max_cycle;Signal;HPM_P1;HPM_P2
2022/11/30 00:01:39;;;;;;;;;9.80;9.80;;;;;9.12;58.47;99641.44;5066373;28;8879;-74
2022/11/30 00:04:08;;;;;;;;;14.00;12.40;;;;;9.06;58.12;99637.06;5066710;28;8863;-72
2022/11/30 00:06:37;;;;;;;;;10.60;9.60;;;;;9.22;57.95;99643.25;5066887;28;8832;-74
2022/11/30 00:09:06;;;;;;;;;12.00;10.00;;;;;9.30;57.67;99641.56;5066518;28;8979;-73
2022/11/30 00:11:35;;;;;;;;;11.00;10.60;;;;;9.27;57.82;99643.28;5066391;28;8886;-71
2022/11/30 00:14:04;;;;;;;;;9.20;7.40;;;;;9.25;57.88;99630.25;5066916;28;8848;-71
2022/11/30 00:16:33;;;;;;;;;14.00;12.00;;;;;9.28;57.44;99642.41;5065892;28;9009;-73
2022/11/30 00:19:01;;;;;;;;;11.40;10.00;;;;;9.36;57.18;99633.78;5050007;28;8860;-72
2022/11/30 00:21:30;;;;;;;;;10.60;10.20;;;;;9.29;57.76;99634.63;5069023;28;8874;-73
2022/11/30 00:23:58;;;;;;;;;11.20;10.40;;;;;9.33;56.82;99633.78;5068354;28;8842;-70
2022/11/30 00:26:28;;;;;;;;;12.60;10.60;;;;;9.36;56.92;99644.22;5066879;28;8944;-72
2022/11/30 00:28:57;;;;;;;;;14.80;14.80;;;;;9.48;56.86;99646.00;5066508;28;8871;-72
2022/11/30 00:31:26;;;;;;;;;10.60;10.00;;;;;9.50;56.73;99643.41;5066304;28;8871;-71
2022/11/30 00:33:55;;;;;;;;;10.40;9.00;;;;;9.47;57.07;99648.59;5066246;28;8860;-72
2022/11/30 00:36:24;;;;;;;;;8.20;8.20;;;;;9.46;56.81;99646.88;5066259;28;8890;-72
2022/11/30 00:38:52;;;;;;;;;12.80;11.20;;;;;9.54;56.71;99655.56;5066232;28;8840;-72
2022/11/30 00:41:21;;;;;;;;;8.40;8.40;;;;;9.24;57.34;99640.66;5066077;28;8852;-73
2022/11/30 00:43:51;;;;;;;;;12.20;11.20;;;;;9.44;56.93;99646.84;5049258;28;8867;-73
2022/11/30 00:46:20;;;;;;;;;9.20;9.20;;;;;9.43;57.04;99629.47;5066112;28;8852;-73
2022/11/30 00:48:49;;;;;;;;;10.20;10.00;;;;;9.39;57.24;99651.16;5065944;28;8978;-72
2022/11/30 00:51:19;;;;;;;;;6.60;6.60;;;;;9.37;57.08;99647.66;5065867;28;8864;-73
2022/11/30 00:53:47;;;;;;;;;6.20;6.20;;;;;9.50;57.15;99652.09;5065881;28;8864;-72
2022/11/30 00:56:16;;;;;;;;;13.00;11.80;;;;;9.46;56.85;99650.34;5065945;28;8855;-72
2022/11/30 00:58:44;;;;;;;;;10.40;10.40;;;;;9.48;56.92;99651.22;5087523;28;8891;-73
2022/11/30 01:01:14;;;;;;;;;12.00;9.60;;;;;9.47;57.03;99641.69;5073647;28;8861;-71
2022/11/30 01:03:43;;;;;;;;;8.40;8.40;;;;;9.43;57.29;99649.44;5068207;28;9012;-73
2022/11/30 01:06:12;;;;;;;;;11.80;10.20;;;;;9.27;57.85;99648.50;5074000;28;8824;-72
2022/11/30 01:08:40;;;;;;;;;10.80;9.00;;;;;9.25;58.22;99643.28;5088950;28;8860;-72
2022/11/30 01:11:15;;;;;;;;;12.00;8.00;;;;;9.49;57.22;99639.94;5053517;28;9605;-71
2022/11/30 01:13:43;;;;;;;;;7.40;7.40;;;;;9.38;57.73;99626.00;5088669;28;8883;-72
2022/11/30 01:16:15;;;;;;;;;9.60;8.20;;;;;9.29;57.93;99638.97;5034708;28;8904;-72
2022/11/30 01:18:44;;;;;;;;;8.80;8.80;;;;;9.50;57.10;99635.59;5068515;28;8850;-72
2022/11/30 01:21:16;;;;;;;;;9.60;9.60;;;;;9.41;57.28;99644.22;5066298;28;9656;-72
2022/11/30 01:23:45;;;;;;;;;7.40;7.40;;;;;9.46;57.29;99633.84;5067905;28;8838;-72
2022/11/30 01:26:14;;;;;;;;;8.60;6.60;;;;;9.61;56.92;99630.47;5068019;28;8850;-74
2022/11/30 01:28:44;;;;;;;;;8.60;8.60;;;;;9.47;57.22;99638.19;5067659;28;8904;-73
2022/11/30 01:31:15;;;;;;;;;9.00;7.20;;;;;9.61;56.73;99633.94;5067892;28;8870;-72
2022/11/30 01:33:48;;;;;;;;;6.40;5.40;;;;;9.74;56.53;99640.94;5049247;28;8854;-72
2022/11/30 01:36:19;;;;;;;;;7.00;7.00;;;;;9.70;56.60;99636.56;5068068;28;8869;-72
2022/11/30 01:38:49;;;;;;;;;5.00;4.20;;;;;9.37;57.42;99626.84;5100680;28;9632;-72
2022/11/30 01:41:20;;;;;;;;;8.40;6.00;;;;;9.45;57.10;99638.19;5066591;28;8850;-73
2022/11/30 01:43:51;;;;;;;;;5.60;5.60;;;;;9.38;57.42;99635.56;5067985;28;8850;-72
2022/11/30 01:46:27;;;;;;;;;6.40;6.00;;;;;9.37;57.38;99621.66;5067969;28;8854;-72
2022/11/30 01:49:02;;;;;;;;;7.80;5.80;;;;;9.16;58.40;99631.06;5067400;28;8850;-71
2022/11/30 01:51:39;;;;;;;;;5.80;5.80;;;;;9.13;58.13;99630.16;5066500;28;8877;-71
2022/11/30 01:54:09;;;;;;;;;5.60;5.00;;;;;9.26;57.52;99644.13;5067667;28;8919;-71
2022/11/30 01:56:44;;;;;;;;;3.40;2.00;;;;;9.30;57.38;99630.28;5067637;28;8874;-74
2022/11/30 01:59:13;;;;;;;;;4.60;4.60;;;;;9.34;57.39;99634.66;5068405;28;8877;-71
2022/11/30 02:01:43;;;;;;;;;3.40;3.40;;;;;9.60;56.57;99610.47;5087530;28;9047;-72
2022/11/30 02:04:19;;;;;;;;;5.80;5.80;;;;;9.27;57.76;99631.13;5087721;28;8875;-72
2022/11/30 02:06:49;;;;;;;;;7.20;5.80;;;;;9.22;58.03;99639.78;5087866;28;8848;-73
2022/11/30 02:09:20;;;;;;;;;6.00;6.00;;;;;9.31;57.59;99619.03;5052383;28;8860;-71
2022/11/30 02:11:50;;;;;;;;;4.20;4.20;;;;;9.16;57.93;99627.59;5089008;28;8864;-72
2022/11/30 02:14:33;;;;;;;;;3.00;2.60;;;;;9.22;57.93;99617.22;5088489;28;8917;-71
2022/11/30 02:17:14;;;;;;;;;6.00;4.60;;;;;8.87;58.72;99614.41;5086768;28;8839;-71
2022/11/30 02:20:11;;;;;;;;;3.00;3.00;;;;;8.89;58.92;99616.16;5086537;28;8856;-72
2022/11/30 02:22:56;;;;;;;;;3.00;3.00;;;;;9.09;57.88;99625.81;5086411;28;8855;-71
2022/11/30 02:25:34;;;;;;;;;5.60;3.80;;;;;9.17;57.91;99618.94;5086054;28;8902;-71
2022/11/30 02:28:22;;;;;;;;;4.20;3.40;;;;;9.30;57.59;99619.88;5086052;28;8984;-72
2022/11/30 02:30:54;;;;;;;;;5.60;4.20;;;;;9.10;58.37;99622.38;5085644;28;9006;-71
2022/11/30 02:33:28;;;;;;;;;4.20;2.00;;;;;9.17;57.97;99626.75;5085812;28;8864;-74
2022/11/30 02:35:59;;;;;;;;;2.00;2.00;;;;;9.16;57.67;99627.59;5025381;28;8958;-74
2022/11/30 02:38:29;;;;;;;;;4.40;3.00;;;;;9.20;58.23;99629.34;4990961;28;8864;-71
2022/11/30 02:40:57;;;;;;;;;5.40;3.80;;;;;9.35;57.63;99610.38;5009593;28;8872;-73
2022/11/30 02:43:30;;;;;;;;;4.20;2.40;;;;;9.44;57.17;99615.63;5026764;28;8852;-73
2022/11/30 02:46:08;;;;;;;;;2.00;2.00;;;;;9.49;56.88;99624.34;5028040;28;8860;-73
2022/11/30 02:48:43;;;;;;;;;2.00;2.00;;;;;9.78;56.17;99617.50;5012913;28;8840;-73
2022/11/30 02:51:17;;;;;;;;;2.00;2.00;;;;;9.59;56.46;99620.03;5029245;28;8921;-73
2022/11/30 02:53:47;;;;;;;;;3.40;3.00;;;;;9.40;56.65;99613.00;5029715;28;8953;-74
2022/11/30 02:56:17;;;;;;;;;6.20;5.80;;;;;9.50;56.73;99620.84;5026725;28;8864;-72
2022/11/30 02:58:46;;;;;;;;;2.80;2.80;;;;;9.13;58.21;99624.97;5026804;28;8864;-71
2022/11/30 03:01:16;;;;;;;;;2.20;2.20;;;;;9.47;57.11;99612.16;5012873;28;8852;-72
2022/11/30 03:03:45;;;;;;;;;2.80;2.80;;;;;9.30;57.31;99625.06;5026474;28;8899;-72
2022/11/30 03:06:13;;;;;;;;;3.00;3.00;;;;;9.63;56.31;99624.38;5015254;28;8860;-71
2022/11/30 03:08:42;;;;;;;;;1.00;1.00;;;;;9.65;56.52;99619.19;5072107;28;8945;-72
2022/11/30 03:11:11;;;;;;;;;2.60;2.60;;;;;9.31;57.23;99632.88;5089685;28;8974;-71
2022/11/30 03:13:39;;;;;;;;;1.80;1.80;;;;;9.52;56.69;99629.53;5086948;28;8872;-71
2022/11/30 03:16:09;;;;;;;;;2.60;2.60;;;;;9.72;56.48;99634.84;5089704;28;8868;-70
2022/11/30 03:18:40;;;;;;;;;5.60;3.00;;;;;9.67;56.24;99631.34;5089511;28;8852;-71
2022/11/30 03:21:12;;;;;;;;;4.60;3.80;;;;;9.41;57.21;99635.56;5089481;28;8951;-73
2022/11/30 03:23:40;;;;;;;;;2.20;2.20;;;;;9.71;56.20;99622.66;5088971;28;8843;-71
2022/11/30 03:26:09;;;;;;;;;1.00;1.00;;;;;9.44;56.57;99631.25;5089030;28;8851;-70
2022/11/30 03:28:38;;;;;;;;;2.20;2.20;;;;;9.80;56.11;99628.81;5086486;28;8860;-71
2022/11/30 03:31:06;;;;;;;;;4.00;3.40;;;;;9.52;56.55;99624.31;5088930;28;8900;-72
2022/11/30 03:33:35;;;;;;;;;2.40;2.40;;;;;9.54;56.46;99625.19;5069553;28;8856;-72
2022/11/30 03:36:07;;;;;;;;;2.20;2.20;;;;;9.59;56.80;99634.78;5053346;28;8875;-71
2022/11/30 03:38:37;;;;;;;;;2.00;2.00;;;;;9.77;55.82;99632.25;5088762;28;8820;-73
2022/11/30 03:41:08;;;;;;;;;2.80;2.60;;;;;9.87;55.49;99639.25;5052712;28;8872;-73
2022/11/30 03:43:37;;;;;;;;;1.80;1.80;;;;;9.93;55.46;99638.41;5088910;28;8897;-72
2022/11/30 03:46:06;;;;;;;;;1.60;1.60;;;;;9.94;55.10;99646.22;5088592;28;8952;-72
2022/11/30 03:48:35;;;;;;;;;2.40;2.00;;;;;9.97;55.20;99644.50;5088521;28;8920;-73
2022/11/30 03:51:05;;;;;;;;;1.80;1.60;;;;;10.01;55.47;99649.72;5070284;28;8889;-72
2022/11/30 03:53:34;;;;;;;;;1.40;1.40;;;;;10.09;55.13;99655.84;5088234;28;8835;-72
2022/11/30 03:56:05;;;;;;;;;1.40;1.40;;;;;10.23;54.41;99648.03;5088666;28;9112;-71
2022/11/30 03:58:35;;;;;;;;;2.00;2.00;;;;;9.74;55.78;99646.13;5086228;28;8835;-71
2022/11/30 04:01:06;;;;;;;;;3.20;1.00;;;;;9.74;55.96;99651.34;5089512;28;8978;-72
2022/11/30 04:03:35;;;;;;;;;2.00;2.00;;;;;9.61;56.74;99644.34;5088770;28;8836;-73
2022/11/30 04:06:07;;;;;;;;;2.00;1.80;;;;;9.88;55.69;99650.53;5074129;28;8868;-73
2022/11/30 04:08:36;;;;;;;;;1.80;1.00;;;;;9.78;56.31;99644.41;5088283;28;8848;-71
2022/11/30 04:11:05;;;;;;;;;0.60;0.60;;;;;9.65;56.10;99647.84;5069070;28;8868;-72
2022/11/30 04:13:35;;;;;;;;;1.00;1.00;;;;;9.56;56.46;99657.34;5086853;28;8897;-72
2022/11/30 04:16:05;;;;;;;;;1.20;0.80;;;;;9.62;56.11;99643.50;5087961;28;8874;-72
2022/11/30 04:18:35;;;;;;;;;2.00;1.20;;;;;9.56;56.10;99653.84;5089058;28;8859;-71
2022/11/30 04:21:06;;;;;;;;;1.40;1.00;;;;;9.67;56.30;99649.56;5089682;28;9007;-72
2022/11/30 04:23:37;;;;;;;;;9.00;7.60;;;;;9.67;55.92;99646.97;5089182;28;8855;-72
2022/11/30 04:26:08;;;;;;;;;0.20;0.20;;;;;9.63;56.17;99650.41;5089348;28;8852;-72
2022/11/30 04:28:36;;;;;;;;;1.80;1.00;;;;;9.74;55.65;99647.88;5089130;28;8851;-71
2022/11/30 04:31:05;;;;;;;;;2.00;2.00;;;;;9.50;56.36;99651.22;5082954;28;8880;-72
2022/11/30 04:33:34;;;;;;;;;1.40;1.40;;;;;9.72;55.89;99657.41;5083679;28;8834;-73
2022/11/30 04:36:06;;;;;;;;;1.00;1.00;;;;;9.63;55.78;99658.22;5050057;28;8950;-72
2022/11/30 04:38:37;;;;;;;;;1.00;1.00;;;;;9.73;55.74;99657.44;5067964;28;8846;-72
2022/11/30 04:41:09;;;;;;;;;3.00;2.00;;;;;9.87;55.35;99660.09;5033241;28;8854;-71
2022/11/30 04:43:37;;;;;;;;;2.00;2.00;;;;;9.99;54.70;99664.47;5082514;28;8851;-73
2022/11/30 04:46:06;;;;;;;;;1.20;1.20;;;;;9.80;55.00;99658.31;5087609;28;8859;-71
2022/11/30 04:48:35;;;;;;;;;1.80;1.40;;;;;9.65;55.39;99664.31;5037113;28;8956;-71
2022/11/30 04:51:07;;;;;;;;;2.00;1.00;;;;;9.61;55.38;99646.09;5069623;28;8839;-72
2022/11/30 04:53:37;;;;;;;;;2.60;2.00;;;;;9.55;55.80;99650.38;5069276;28;8900;-72
2022/11/30 04:56:06;;;;;;;;;2.00;2.00;;;;;9.41;56.19;99661.56;5069477;28;9677;-72
2022/11/30 04:58:35;;;;;;;;;0.00;0.00;;;;;9.35;56.27;99654.59;5069062;28;8826;-72
2022/11/30 05:01:04;;;;;;;;;2.00;2.00;;;;;9.32;56.46;99652.88;5068572;28;8884;-72
2022/11/30 05:03:33;;;;;;;;;1.00;1.00;;;;;9.51;55.85;99664.25;5067978;28;8870;-72
2022/11/30 05:06:01;;;;;;;;;3.00;1.00;;;;;9.55;55.57;99663.41;5068246;28;8853;-70
2022/11/30 05:08:31;;;;;;;;;2.00;2.00;;;;;9.44;55.90;99664.22;5068300;28;8901;-73
2022/11/30 05:11:00;;;;;;;;;5.00;5.00;;;;;9.39;56.15;99665.91;5067895;28;8854;-72
2022/11/30 05:13:28;;;;;;;;;1.00;1.00;;;;;9.25;56.61;99669.28;5068321;28;8850;-72
2022/11/30 05:15:57;;;;;;;;;0.40;0.40;;;;;9.34;55.91;99663.28;5068125;28;8959;-72
2022/11/30 05:18:26;;;;;;;;;0.80;0.80;;;;;9.36;56.11;99672.84;5068143;28;8862;-72
2022/11/30 05:20:55;;;;;;;;;7.00;4.80;;;;;9.32;56.58;99660.66;5067587;28;8854;-72
2022/11/30 05:23:23;;;;;;;;;3.00;2.00;;;;;9.14;56.81;99665.75;5067856;28;8846;-72
2022/11/30 05:25:53;;;;;;;;;3.20;3.20;;;;;9.28;56.67;99677.13;5068086;28;8849;-72
2022/11/30 05:28:22;;;;;;;;;1.40;1.40;;;;;9.31;56.04;99676.28;5084516;28;8856;-74
2022/11/30 05:30:50;;;;;;;;;10.20;8.00;;;;;9.39;56.26;99689.31;5051841;28;8893;-72
2022/11/30 05:33:19;;;;;;;;;2.00;1.20;;;;;9.07;57.19;99676.97;5087456;28;8863;-72
2022/11/30 05:35:47;;;;;;;;;0.80;0.80;;;;;9.30;56.56;99675.41;5052060;28;8950;-73
2022/11/30 05:38:17;;;;;;;;;1.00;1.00;;;;;9.08;57.31;99689.13;5084314;28;8840;-72
2022/11/30 05:40:45;;;;;;;;;0.00;0.00;;;;;9.24;56.42;99675.34;5068079;28;8858;-73
2022/11/30 05:43:15;;;;;;;;;2.60;1.00;;;;;9.17;56.85;99676.19;5067752;28;8875;-71
2022/11/30 05:45:44;;;;;;;;;0.00;0.00;;;;;9.26;56.52;99677.97;5100320;28;8901;-73
2022/11/30 05:48:12;;;;;;;;;1.00;1.00;;;;;9.16;56.80;99677.03;5068244;28;8846;-71
2022/11/30 05:50:41;;;;;;;;;2.20;2.00;;;;;9.31;56.26;99671.06;5067564;28;9771;-71
2022/11/30 05:53:09;;;;;;;;;1.00;1.00;;;;;9.24;57.04;99674.47;5066736;28;8851;-71
2022/11/30 05:55:38;;;;;;;;;1.20;1.00;;;;;9.24;56.67;99670.13;5068183;28;9609;-72
2022/11/30 05:58:07;;;;;;;;;2.40;1.00;;;;;9.04;57.26;99679.56;5087586;28;8986;-73
2022/11/30 06:00:37;;;;;;;;;2.00;2.00;;;;;9.26;56.74;99673.66;5087805;28;8878;-73
2022/11/30 06:03:05;;;;;;;;;1.00;1.00;;;;;9.04;57.08;99679.56;5087181;28;8859;-72
2022/11/30 06:05:35;;;;;;;;;2.00;1.60;;;;;9.16;57.01;99684.84;5087511;28;8913;-73
2022/11/30 06:08:04;;;;;;;;;2.20;2.00;;;;;9.27;57.00;99671.91;5087536;28;8856;-72
2022/11/30 06:10:32;;;;;;;;;1.00;1.00;;;;;9.26;56.52;99681.47;5086948;28;8855;-74
2022/11/30 06:13:06;;;;;;;;;1.00;1.00;;;;;9.04;56.81;99689.97;5075913;28;9004;-71
2022/11/30 06:15:38;;;;;;;;;1.00;1.00;;;;;9.25;56.32;99684.03;5071890;28;8909;-73
2022/11/30 06:18:07;;;;;;;;;1.00;1.00;;;;;8.97;56.91;99697.69;5091368;28;8854;-73
2022/11/30 06:20:36;;;;;;;;;3.00;1.40;;;;;9.11;56.72;99695.22;5090995;28;8851;-72
2022/11/30 06:23:05;;;;;;;;;2.80;1.80;;;;;9.34;55.71;99700.59;5105657;28;8867;-71
2022/11/30 06:25:34;;;;;;;;;2.60;2.60;;;;;9.50;55.23;99698.06;5090788;28;8912;-71
2022/11/30 06:28:03;;;;;;;;;2.60;2.60;;;;;9.34;55.71;99684.09;5091170;28;8851;-72
2022/11/30 06:30:31;;;;;;;;;9.80;8.20;;;;;9.36;55.37;99698.88;5089295;28;8886;-72
2022/11/30 06:33:02;;;;;;;;;8.40;7.00;;;;;9.33;55.52;99698.81;5087488;28;8857;-72
2022/11/30 06:35:30;;;;;;;;;17.40;15.20;;;;;9.36;55.72;99691.06;5090656;28;8850;-74
2022/11/30 06:37:59;;;;;;;;;17.20;15.80;;;;;9.16;56.46;99687.44;5090256;28;8847;-73
2022/11/30 06:40:28;;;;;;;;;14.40;12.60;;;;;9.49;55.31;99678.09;5090296;28;9144;-74
2022/11/30 06:42:56;;;;;;;;;23.80;20.60;;;;;9.17;56.23;99679.66;5113094;28;8856;-74
2022/11/30 06:45:25;;;;;;;;;16.00;14.00;;;;;9.42;55.66;99686.75;5091918;28;8911;-75
2022/11/30 06:47:55;;;;;;;;;32.00;25.60;;;;;9.50;55.44;99683.31;5108099;28;8864;-76
2022/11/30 06:50:25;;;;;;;;;13.60;11.80;;;;;9.40;55.66;99694.56;5108070;28;8998;-75
2022/11/30 06:52:55;;;;;;;;;10.00;9.80;;;;;9.60;54.85;99697.25;5090792;28;8878;-74
2022/11/30 06:55:24;;;;;;;;;8.40;6.80;;;;;9.23;55.60;99683.16;5107916;28;8994;-72
2022/11/30 06:57:53;;;;;;;;;2.80;2.80;;;;;9.47;56.36;99695.44;5107833;28;8843;-71
2022/11/30 07:00:22;;;;;;;;;6.40;5.60;;;;;9.45;55.97;99676.34;5103925;28;8918;-70
2022/11/30 07:02:51;;;;;;;;;2.00;2.00;;;;;9.51;55.89;99690.28;5095903;28;8863;-75
2022/11/30 07:05:19;;;;;;;;;2.00;2.00;;;;;9.54;55.77;99692.88;5073821;28;8840;-74
2022/11/30 07:07:49;;;;;;;;;3.00;2.00;;;;;9.86;55.42;99688.72;5108083;28;8843;-74
2022/11/30 07:10:18;;;;;;;;;5.80;4.00;;;;;9.79;54.92;99689.56;5058415;28;10116;-76
2022/11/30 07:12:48;;;;;;;;;2.40;2.40;;;;;9.67;55.23;99686.03;5090510;28;8870;-75
2022/11/30 07:15:17;;;;;;;;;3.00;3.00;;;;;9.87;54.29;99688.75;5082454;28;8855;-74
2022/11/30 07:17:46;;;;;;;;;3.00;3.00;;;;;9.90;54.77;99685.25;5102014;27;8874;-77
2022/11/30 07:20:14;;;;;;;;;2.80;2.80;;;;;9.87;54.20;99693.09;5085419;28;8862;-75
2022/11/30 07:22:43;;;;;;;;;4.80;3.20;;;;;9.92;54.61;99689.63;5068945;28;8862;-74
2022/11/30 07:27:59;;;;;;;;;4.80;3.80;;;;;10.13;54.07;99683.63;5103706;28;8862;-75
2022/11/30 07:30:27;;;;;;;;;3.40;2.40;;;;;9.89;54.44;99696.56;5070167;28;8881;-75
2022/11/30 07:32:56;;;;;;;;;3.20;2.80;;;;;10.08;53.98;99684.47;5055160;28;8850;-77
2022/11/30 07:35:24;;;;;;;;;3.80;3.80;;;;;10.00;53.46;99673.16;5072593;28;9631;-77
2022/11/30 07:37:53;;;;;;;;;6.80;2.40;;;;;10.18;53.35;99685.38;5075210;28;8862;-75
2022/11/30 07:40:23;;;;;;;;;2.00;2.00;;;;;10.05;53.38;99685.31;5068971;28;8843;-74
2022/11/30 07:42:55;;;;;;;;;2.60;2.60;;;;;10.15;52.93;99688.81;5085539;28;8830;-76
2022/11/30 07:45:23;;;;;;;;;4.60;4.60;;;;;10.16;52.99;99685.38;5069752;28;8862;-75
2022/11/30 07:47:52;;;;;;;;;2.00;2.00;;;;;10.15;53.15;99681.91;5089605;28;8920;-74
2022/11/30 07:50:20;;;;;;;;;2.00;2.00;;;;;10.00;53.34;99692.28;5089886;28;8848;-76
2022/11/30 07:52:49;;;;;;;;;1.40;1.40;;;;;10.34;52.53;99671.56;5078740;28;8878;-75
2022/11/30 07:55:19;;;;;;;;;2.00;2.00;;;;;10.25;52.79;99681.94;5051355;28;8858;-77
2022/11/30 07:57:49;;;;;;;;;2.40;2.00;;;;;10.13;53.00;99691.47;5067766;28;9650;-76
2022/11/30 08:00:18;;;;;;;;;1.00;1.00;;;;;10.12;52.95;99689.69;5067723;28;8854;-74
2022/11/30 08:02:50;;;;;;;;;1.20;1.20;;;;;10.10;53.03;99685.34;5074402;28;8835;-74
2022/11/30 08:05:18;;;;;;;;;1.20;1.20;;;;;10.25;52.59;99685.41;5068304;28;8896;-73
2022/11/30 08:07:51;;;;;;;;;1.00;1.00;;;;;10.34;52.33;99697.63;5068121;28;8944;-75
2022/11/30 08:10:21;;;;;;;;;3.00;2.40;;;;;10.19;52.92;99693.22;5068422;28;8948;-74
2022/11/30 08:12:51;;;;;;;;;2.60;1.80;;;;;10.30;52.73;99696.75;5084373;28;8884;-76
2022/11/30 08:15:19;;;;;;;;;2.00;2.00;;;;;10.30;52.76;99706.25;5047608;28;8908;-75
2022/11/30 08:17:54;;;;;;;;;2.00;2.00;;;;;10.34;52.73;99713.28;5047030;28;8846;-76
2022/11/30 08:20:22;;;;;;;;;2.20;2.20;;;;;10.34;52.29;99710.66;5044461;28;8935;-76
2022/11/30 08:22:51;;;;;;;;;1.40;1.00;;;;;10.44;51.72;99708.97;5045241;28;8846;-73
2022/11/30 08:25:20;;;;;;;;;2.00;2.00;;;;;10.42;51.74;99716.75;4992300;28;8997;-74
2022/11/30 08:27:50;;;;;;;;;1.20;1.20;;;;;10.33;52.00;99711.53;5055532;28;8842;-75
2022/11/30 08:30:19;;;;;;;;;1.40;1.40;;;;;10.44;51.95;99720.25;5051668;28;8874;-74
2022/11/30 08:32:48;;;;;;;;;3.40;2.60;;;;;10.43;52.13;99704.59;5031318;28;8897;-73
2022/11/30 08:35:16;;;;;;;;;3.00;2.40;;;;;10.26;52.11;99707.97;5014001;28;8850;-72
2022/11/30 08:37:45;;;;;;;;;2.00;2.00;;;;;9.92;53.35;99715.69;5028394;28;10158;-73
2022/11/30 08:40:14;;;;;;;;;2.60;2.00;;;;;10.26;52.86;99705.38;5004675;28;8915;-75
2022/11/30 08:42:42;;;;;;;;;10.80;7.00;;;;;10.24;52.82;99711.47;4990728;28;8869;-75
2022/11/30 08:45:12;;;;;;;;;2.20;2.20;;;;;10.29;52.48;99720.16;4987434;28;8873;-75
2022/11/30 08:47:41;;;;;;;;;3.40;3.40;;;;;10.12;53.01;99715.75;5043047;28;8870;-73
2022/11/30 08:50:10;;;;;;;;;3.00;2.00;;;;;10.22;52.65;99716.66;5045513;28;8854;-74
2022/11/30 08:52:39;;;;;;;;;4.00;2.80;;;;;10.28;53.47;99708.00;5044047;28;8853;-72
2022/11/30 08:55:09;;;;;;;;;3.00;3.00;;;;;10.12;53.65;99694.91;5028024;28;9052;-71
2022/11/30 08:57:37;;;;;;;;;3.00;3.00;;;;;9.98;54.40;99694.00;5005575;28;8852;-73
2022/11/30 09:00:07;;;;;;;;;5.20;4.80;;;;;9.98;54.64;99701.81;5006038;28;9246;-72
2022/11/30 09:02:37;;;;;;;;;2.60;2.60;;;;;10.15;54.76;99699.25;4958000;28;8918;-74
2022/11/30 09:05:07;;;;;;;;;6.40;6.00;;;;;10.24;54.46;99694.06;4973062;28;8867;-72
2022/11/30 09:07:36;;;;;;;;;7.60;7.00;;;;;10.38;54.01;99690.66;5005876;28;8859;-76
2022/11/30 09:10:05;;;;;;;;;7.20;3.60;;;;;10.58;53.14;99685.50;4990238;28;9589;-75
2022/11/30 09:12:35;;;;;;;;;6.20;3.40;;;;;10.36;53.22;99682.88;4976794;28;8996;-76
2022/11/30 09:15:04;;;;;;;;;4.60;3.80;;;;;10.30;53.73;99661.94;4976881;28;8862;-75
2022/11/30 09:17:33;;;;;;;;;7.40;6.00;;;;;10.23;54.01;99683.66;4998564;28;8845;-74
2022/11/30 09:20:03;;;;;;;;;4.40;4.20;;;;;10.33;53.31;99690.66;5026220;28;8888;-71
2022/11/30 09:22:32;;;;;;;;;8.00;6.00;;;;;10.26;53.66;99692.34;5030075;28;8862;-71
2022/11/30 09:25:00;;;;;;;;;3.40;2.20;;;;;10.39;53.32;99685.47;5032750;28;8867;-72
2022/11/30 09:27:32;;;;;;;;;6.00;6.00;;;;;10.31;53.19;99656.78;4964668;28;8918;-71
2022/11/30 09:30:01;;;;;;;;;4.80;4.40;;;;;10.45;52.77;99690.72;5085620;28;8840;-73
2022/11/30 09:32:29;;;;;;;;;8.40;7.00;;;;;10.57;52.97;99681.16;5086375;28;8940;-73
2022/11/30 09:34:58;;;;;;;;;7.60;5.20;;;;;10.50;53.68;99693.31;5087847;28;8982;-71
2022/11/30 09:37:28;;;;;;;;;7.20;7.00;;;;;10.49;51.80;99670.72;5062554;28;8854;-78
2022/11/30 09:39:57;;;;;;;;;4.20;4.20;;;;;10.46;52.28;99679.41;5075505;28;8832;-78
2022/11/30 09:42:41;;;;;;;;;5.20;5.20;;;;;10.75;51.15;99670.75;5087817;28;9618;-77
2022/11/30 09:45:17;;;;;;;;;5.60;5.60;;;;;10.86;50.95;99673.38;5087841;28;8840;-75
2022/11/30 09:48:17;;;;;;;;;3.60;3.60;;;;;10.88;51.29;99674.22;5103618;28;8959;-74
2022/11/30 09:50:48;;;;;;;;;5.20;4.00;;;;;11.08;50.85;99671.63;5011533;28;8869;-75
2022/11/30 09:53:24;;;;;;;;;7.60;6.00;;;;;11.24;50.01;99675.94;5041892;28;8864;-74
2022/11/30 09:56:00;;;;;;;;;3.00;2.60;;;;;10.76;50.30;99671.63;5005029;28;8844;-75
2022/11/30 09:58:39;;;;;;;;;5.60;3.80;;;;;10.92;50.32;99675.97;5024509;28;8949;-74
2022/11/30 10:01:15;;;;;;;;;6.00;4.80;;;;;11.00;50.18;99681.19;5024769;28;8964;-74
2022/11/30 10:03:44;;;;;;;;;4.80;4.00;;;;;10.82;50.30;99684.69;5034701;28;8854;-73
2022/11/30 10:06:22;;;;;;;;;2.60;2.00;;;;;10.84;50.32;99665.53;5039320;28;8862;-76
2022/11/30 10:09:06;;;;;;;;;1.00;1.00;;;;;10.62;50.94;99664.63;5043088;28;8989;-74
2022/11/30 10:11:44;;;;;;;;;3.00;3.00;;;;;10.77;50.75;99678.56;5009799;28;9025;-74
2022/11/30 10:14:32;;;;;;;;;5.40;3.00;;;;;10.58;50.92;99667.25;5031657;28;8858;-76
2022/11/30 10:17:12;;;;;;;;;1.40;1.40;;;;;10.81;50.43;99667.28;5045896;28;8997;-74
2022/11/30 10:19:58;;;;;;;;;3.00;3.00;;;;;10.71;50.80;99672.47;5029005;28;8856;-75
2022/11/30 10:22:41;;;;;;;;;6.80;3.20;;;;;10.70;51.29;99660.31;5048874;28;8847;-75
2022/11/30 10:25:21;;;;;;;;;4.00;3.20;;;;;11.10;50.93;99665.53;5068206;28;8967;-75
2022/11/30 10:27:52;;;;;;;;;3.60;3.60;;;;;11.04;51.23;99668.16;5067653;28;8838;-75
2022/11/30 10:30:23;;;;;;;;;3.00;3.00;;;;;10.78;51.36;99651.63;5082602;28;9010;-76
2022/11/30 10:32:54;;;;;;;;;2.00;2.00;;;;;10.72;51.34;99650.75;5067040;28;8842;-76
2022/11/30 10:35:34;;;;;;;;;6.40;4.00;;;;;10.88;51.25;99659.44;5067298;28;8965;-75
2022/11/30 10:38:12;;;;;;;;;1.00;1.00;;;;;10.89;50.97;99647.28;5084221;28;8988;-75
2022/11/30 10:40:50;;;;;;;;;2.00;2.00;;;;;10.89;50.68;99668.16;5075166;28;8866;-74
2022/11/30 10:43:26;;;;;;;;;4.00;3.00;;;;;10.82;51.03;99646.41;5040359;28;8998;-75
2022/11/30 10:45:55;;;;;;;;;4.80;4.80;;;;;10.97;50.95;99644.69;5051805;28;8867;-74
2022/11/30 10:48:32;;;;;;;;;1.60;1.60;;;;;10.62;52.00;99651.59;5085190;28;8832;-74
2022/11/30 10:51:03;;;;;;;;;3.00;3.00;;;;;10.86;51.91;99650.75;5086066;28;8948;-74
2022/11/30 10:53:33;;;;;;;;;3.20;3.20;;;;;10.86;51.70;99640.31;5101728;28;8840;-75
2022/11/30 10:56:08;;;;;;;;;3.60;1.80;;;;;10.63;51.25;99649.88;5086411;28;8851;-74
2022/11/30 10:58:40;;;;;;;;;2.00;2.00;;;;;10.61;51.80;99655.09;5085003;28;8827;-75
2022/11/30 11:01:11;;;;;;;;;5.20;4.00;;;;;10.73;51.97;99662.91;5088698;28;8840;-76
2022/11/30 11:03:40;;;;;;;;;2.00;2.00;;;;;10.41;52.69;99660.25;5091186;28;10253;-74
2022/11/30 11:06:15;;;;;;;;;2.60;2.00;;;;;10.61;52.19;99662.91;5090688;28;9735;-74
2022/11/30 11:08:45;;;;;;;;;3.20;3.20;;;;;10.64;51.67;99654.22;4995167;28;8871;-73
2022/11/30 11:11:31;;;;;;;;;2.00;2.00;;;;;10.52;52.01;99657.69;5075525;28;8871;-74
2022/11/30 11:14:16;;;;;;;;;2.80;2.40;;;;;10.61;51.54;99652.50;5091549;28;8824;-75
2022/11/30 11:16:54;;;;;;;;;2.00;2.00;;;;;10.64;51.97;99665.53;5090219;28;8876;-74
2022/11/30 11:19:32;;;;;;;;;2.60;2.40;;;;;10.80;51.48;99661.19;5088643;28;8855;-74
2022/11/30 11:22:04;;;;;;;;;7.60;6.60;;;;;10.93;51.24;99660.31;5089935;28;9714;-74
2022/11/30 11:24:34;;;;;;;;;5.40;4.80;;;;;11.01;50.45;99655.09;5085754;28;8908;-75
2022/11/30 11:27:04;;;;;;;;;3.00;3.00;;;;;11.17;50.34;99669.03;5072157;28;8963;-75
2022/11/30 11:29:34;;;;;;;;;2.80;2.80;;;;;11.21;50.40;99654.19;5089027;28;8853;-77
2022/11/30 11:32:16;;;;;;;;;6.80;6.40;;;;;11.39;50.00;99662.00;5089201;28;8836;-75
2022/11/30 11:34:46;;;;;;;;;4.00;4.00;;;;;11.34;49.68;99653.31;5089254;28;9658;-75
2022/11/30 11:37:21;;;;;;;;;5.60;5.00;;;;;11.48;49.77;99653.28;5090653;28;8872;-74
2022/11/30 11:40:03;;;;;;;;;6.40;6.40;;;;;11.07;50.99;99652.47;5090493;28;8836;-74
2022/11/30 11:42:37;;;;;;;;;7.60;7.00;;;;;11.32;50.47;99652.44;5083254;28;9951;-74
2022/11/30 11:45:15;;;;;;;;;9.20;8.40;;;;;11.35;50.27;99660.28;5084975;28;8858;-74
2022/11/30 11:47:45;;;;;;;;;7.60;6.80;;;;;11.53;49.62;99656.78;5077672;28;8855;-74
2022/11/30 11:50:31;;;;;;;;;8.00;6.20;;;;;11.69;49.06;99662.81;5084271;28;8867;-74
2022/11/30 11:53:25;;;;;;;;;8.80;8.00;;;;;11.26;49.65;99658.53;5087135;28;8848;-74
2022/11/30 11:55:59;;;;;;;;;7.60;7.00;;;;;11.29;49.70;99653.31;5102116;28;8888;-76
2022/11/30 11:58:37;;;;;;;;;10.20;8.00;;;;;11.27;49.48;99652.47;5086700;28;8873;-74
2022/11/30 12:01:13;;;;;;;;;13.40;12.20;;;;;11.23;49.68;99661.19;5085175;28;8863;-75
2022/11/30 12:04:15;;;;;;;;;7.60;7.60;;;;;11.45;49.77;99650.69;5093401;28;9581;-76
2022/11/30 12:06:46;;;;;;;;;6.40;6.40;;;;;11.06;49.96;99658.59;5092579;28;8859;-74
2022/11/30 12:09:19;;;;;;;;;8.60;8.20;;;;;11.17;50.25;99658.59;5089986;28;8862;-74